Condor Express — 9V5373 — position and weather

sailwx.info

Track history (hours):
 
Tides and Currents Weather Stations Pressure Air Temp Water Temp Dewpoint Dewpoint Depression Visibility Wind Speed Wind Dir Waves Ship Positions

Condor Express

Operator: Condor Marine Services

Last reported at 2017-Nov-15 07:43 UTC. Time now 2017-Nov-19 10:41 UTC.
Position N 35°49' E 030°22'.

Length 235 m; draft 14.5 m.

Type: Cargo ship. MMSI: 563014500.

Date/timePositionNaut miles runAvg speedWind from/ knotsBaromVisibWave heightAir tempDewpointWater temp
2017-Nov-15 07:43N 35°49' E 030°22'  
2017-Nov-12 12:15N 36°16' E 014°52'310.4
2017-Nov-12 11:56N 36°17' E 014°48'510.2
2017-Nov-12 11:29N 36°17' E 014°42'510.1
2017-Nov-12 11:00N 36°18' E 014°36'510.2
2017-Nov-12 10:30N 36°18' E 014°30'510.3
2017-Nov-12 10:00N 36°20' E 014°24'510.7
2017-Nov-12 09:30N 36°22' E 014°18'510.9
2017-Nov-12 09:00N 36°24' E 014°11'610.9
2017-Nov-12 08:30N 36°25' E 014°05'610.7
2017-Nov-12 07:58N 36°28' E 013°58'511.0
2017-Nov-12 07:30N 36°30' E 013°52'  
2017-Nov-08 20:43N 36°00' W 005°16'313.4
2017-Nov-08 20:28N 35°59' W 005°20'248 9.8
2017-Nov-07 19:06N 37°56' W 009°53'311.5
2017-Nov-07 18:50N 37°60' W 009°54'411.3
2017-Nov-07 18:30N 38°03' W 009°55'711.2
2017-Nov-07 17:51N 38°10' W 009°57'511.2
2017-Nov-07 17:25N 38°15' W 009°59'511.5
2017-Nov-07 17:00N 38°20' W 010°00'611.5
2017-Nov-07 16:30N 38°25' W 010°02'611.7
2017-Nov-07 16:00N 38°31' W 010°03'612.0
2017-Nov-07 15:30N 38°37' W 010°05'611.9
2017-Nov-07 15:00N 38°43' W 010°06'611.5
2017-Nov-07 14:30N 38°48' W 010°07'611.1
2017-Nov-07 14:00N 38°54' W 010°06'510.9
2017-Nov-07 13:30N 38°59' W 010°06'510.9
2017-Nov-07 13:00N 39°05' W 010°07'611.6
2017-Nov-07 12:30N 39°11' W 010°07'611.7
2017-Nov-07 12:00N 39°17' W 010°07'611.3
2017-Nov-07 11:30N 39°22' W 010°06'  
Track history (hours):
 
Tides and Currents Weather Stations Pressure Air Temp Water Temp Dewpoint Dewpoint Depression Visibility Wind Speed Wind Dir Waves Ship Positions

Condor Express

Operator: Condor Marine Services

Last reported at 2017-Nov-15 07:43 UTC. Time now 2017-Nov-19 10:41 UTC.
Position N 35°49' E 030°22'.

Length 235 m; draft 14.5 m.

Type: Cargo ship. MMSI: 563014500.

Date/timePositionNaut miles runAvg speedWind from/ knotsBaromVisibWave heightAir tempDewpointWater temp
2017-Nov-15 07:43N 35°49' E 030°22'  
2017-Nov-12 12:15N 36°16' E 014°52'310.4
2017-Nov-12 11:56N 36°17' E 014°48'510.2
2017-Nov-12 11:29N 36°17' E 014°42'510.1
2017-Nov-12 11:00N 36°18' E 014°36'510.2
2017-Nov-12 10:30N 36°18' E 014°30'510.3
2017-Nov-12 10:00N 36°20' E 014°24'510.7
2017-Nov-12 09:30N 36°22' E 014°18'510.9
2017-Nov-12 09:00N 36°24' E 014°11'610.9
2017-Nov-12 08:30N 36°25' E 014°05'610.7
2017-Nov-12 07:58N 36°28' E 013°58'511.0
2017-Nov-12 07:30N 36°30' E 013°52'  
2017-Nov-08 20:43N 36°00' W 005°16'313.4
2017-Nov-08 20:28N 35°59' W 005°20'248 9.8
2017-Nov-07 19:06N 37°56' W 009°53'311.5
2017-Nov-07 18:50N 37°60' W 009°54'411.3
2017-Nov-07 18:30N 38°03' W 009°55'711.2
2017-Nov-07 17:51N 38°10' W 009°57'511.2
2017-Nov-07 17:25N 38°15' W 009°59'511.5
2017-Nov-07 17:00N 38°20' W 010°00'611.5
2017-Nov-07 16:30N 38°25' W 010°02'611.7
2017-Nov-07 16:00N 38°31' W 010°03'612.0
2017-Nov-07 15:30N 38°37' W 010°05'611.9
2017-Nov-07 15:00N 38°43' W 010°06'611.5
2017-Nov-07 14:30N 38°48' W 010°07'611.1
2017-Nov-07 14:00N 38°54' W 010°06'510.9
2017-Nov-07 13:30N 38°59' W 010°06'510.9
2017-Nov-07 13:00N 39°05' W 010°07'611.6
2017-Nov-07 12:30N 39°11' W 010°07'611.7
2017-Nov-07 12:00N 39°17' W 010°07'611.3
2017-Nov-07 11:30N 39°22' W 010°06'  

Dump ship's entire track history